sensor_id;sensor_type;location;lat;lon;timestamp;P1;durP1;ratioP1;P2;durP2;ratioP2
3815;SDS011;1923;48.154;11.536;2022-10-16T13:45:35;0.87;;;0.87;;
3815;SDS011;1923;48.154;11.536;2022-10-16T13:48:04;0.63;;;0.50;;
3815;SDS011;1923;48.154;11.536;2022-10-16T13:50:38;0.80;;;0.40;;
3815;SDS011;1923;48.154;11.536;2022-10-16T13:53:06;0.80;;;0.60;;
3815;SDS011;1923;48.154;11.536;2022-10-16T13:55:40;1.53;;;0.80;;
3815;SDS011;1923;48.154;11.536;2022-10-16T13:58:08;1.87;;;0.80;;
3815;SDS011;1923;48.154;11.536;2022-10-16T14:00:41;3.87;;;1.60;;
3815;SDS011;1923;48.154;11.536;2022-10-16T14:03:21;3.43;;;0.97;;
3815;SDS011;1923;48.154;11.536;2022-10-16T14:05:51;1.50;;;1.10;;
3815;SDS011;1923;48.154;11.536;2022-10-16T14:08:21;3.83;;;1.77;;
3815;SDS011;1923;48.154;11.536;2022-10-16T14:10:51;1.30;;;0.97;;
3815;SDS011;1923;48.154;11.536;2022-10-16T14:13:28;2.50;;;1.00;;
3815;SDS011;1923;48.154;11.536;2022-10-16T14:16:04;1.40;;;0.90;;
3815;SDS011;1923;48.154;11.536;2022-10-16T14:18:34;1.03;;;0.80;;
3815;SDS011;1923;48.154;11.536;2022-10-16T14:21:06;1.80;;;1.20;;
3815;SDS011;1923;48.154;11.536;2022-10-16T14:23:39;1.57;;;0.90;;
3815;SDS011;1923;48.154;11.536;2022-10-16T14:26:15;1.60;;;1.00;;
3815;SDS011;1923;48.154;11.536;2022-10-16T14:28:44;1.67;;;0.83;;
3815;SDS011;1923;48.154;11.536;2022-10-16T14:31:25;1.70;;;1.07;;
3815;SDS011;1923;48.154;11.536;2022-10-16T14:33:55;1.90;;;0.90;;
3815;SDS011;1923;48.154;11.536;2022-10-16T14:36:24;2.00;;;1.00;;
3815;SDS011;1923;48.154;11.536;2022-10-16T14:38:56;1.37;;;0.83;;
3815;SDS011;1923;48.154;11.536;2022-10-16T14:41:27;2.20;;;0.90;;
3815;SDS011;1923;48.154;11.536;2022-10-16T14:43:57;1.20;;;0.90;;
3815;SDS011;1923;48.154;11.536;2022-10-16T14:46:31;2.50;;;1.53;;
3815;SDS011;1923;48.154;11.536;2022-10-16T14:49:15;3.87;;;1.13;;
3815;SDS011;1923;48.154;11.536;2022-10-16T14:51:46;2.30;;;1.03;;
3815;SDS011;1923;48.154;11.536;2022-10-16T14:54:14;2.47;;;1.90;;
3815;SDS011;1923;48.154;11.536;2022-10-16T14:56:48;1.40;;;0.87;;
3815;SDS011;1923;48.154;11.536;2022-10-16T14:59:19;2.30;;;1.10;;
3815;SDS011;1923;48.154;11.536;2022-10-16T15:01:52;1.00;;;0.80;;
3815;SDS011;1923;48.154;11.536;2022-10-16T15:04:20;2.23;;;0.80;;
3815;SDS011;1923;48.154;11.536;2022-10-16T15:06:48;1.47;;;0.80;;
3815;SDS011;1923;48.154;11.536;2022-10-16T15:09:16;2.00;;;1.20;;
3815;SDS011;1923;48.154;11.536;2022-10-16T15:11:44;1.20;;;0.83;;
3815;SDS011;1923;48.154;11.536;2022-10-16T15:14:13;1.67;;;0.87;;
3815;SDS011;1923;48.154;11.536;2022-10-16T15:16:41;2.00;;;1.07;;
3815;SDS011;1923;48.154;11.536;2022-10-16T15:19:10;1.90;;;1.00;;
3815;SDS011;1923;48.154;11.536;2022-10-16T15:21:39;1.00;;;0.70;;
3815;SDS011;1923;48.154;11.536;2022-10-16T15:24:08;2.10;;;0.77;;
3815;SDS011;1923;48.154;11.536;2022-10-16T15:26:44;1.30;;;0.90;;
3815;SDS011;1923;48.154;11.536;2022-10-16T15:29:13;1.40;;;0.87;;
3815;SDS011;1923;48.154;11.536;2022-10-16T15:31:41;1.90;;;1.13;;
3815;SDS011;1923;48.154;11.536;2022-10-16T15:34:10;1.53;;;1.10;;
3815;SDS011;1923;48.154;11.536;2022-10-16T15:36:39;1.70;;;1.20;;
3815;SDS011;1923;48.154;11.536;2022-10-16T15:39:10;1.60;;;1.27;;
3815;SDS011;1923;48.154;11.536;2022-10-16T15:41:41;3.53;;;1.43;;
3815;SDS011;1923;48.154;11.536;2022-10-16T15:44:09;3.87;;;2.03;;
3815;SDS011;1923;48.154;11.536;2022-10-16T15:46:37;3.50;;;1.53;;
3815;SDS011;1923;48.154;11.536;2022-10-16T15:49:05;2.90;;;1.63;;
3815;SDS011;1923;48.154;11.536;2022-10-16T15:51:34;4.30;;;2.10;;
3815;SDS011;1923;48.154;11.536;2022-10-16T15:54:05;2.93;;;1.83;;
3815;SDS011;1923;48.154;11.536;2022-10-16T15:56:34;1.97;;;1.37;;
3815;SDS011;1923;48.154;11.536;2022-10-16T15:59:03;1.60;;;1.30;;
3815;SDS011;1923;48.154;11.536;2022-10-16T16:01:32;2.53;;;1.23;;
3815;SDS011;1923;48.154;11.536;2022-10-16T16:04:00;1.60;;;1.03;;
3815;SDS011;1923;48.154;11.536;2022-10-16T16:06:42;3.80;;;2.07;;
3815;SDS011;1923;48.154;11.536;2022-10-16T16:09:12;1.97;;;1.23;;
3815;SDS011;1923;48.154;11.536;2022-10-16T16:11:40;3.90;;;1.70;;
3815;SDS011;1923;48.154;11.536;2022-10-16T16:14:10;3.60;;;2.10;;
3815;SDS011;1923;48.154;11.536;2022-10-16T16:16:40;3.03;;;1.97;;
3815;SDS011;1923;48.154;11.536;2022-10-16T16:19:08;3.67;;;2.30;;
3815;SDS011;1923;48.154;11.536;2022-10-16T16:21:37;2.83;;;1.93;;
3815;SDS011;1923;48.154;11.536;2022-10-16T16:24:06;3.00;;;2.07;;
3815;SDS011;1923;48.154;11.536;2022-10-16T16:26:35;6.73;;;3.43;;
3815;SDS011;1923;48.154;11.536;2022-10-16T16:29:06;3.30;;;2.50;;
3815;SDS011;1923;48.154;11.536;2022-10-16T16:31:36;4.13;;;2.17;;
3815;SDS011;1923;48.154;11.536;2022-10-16T16:34:04;1.60;;;1.30;;
3815;SDS011;1923;48.154;11.536;2022-10-16T16:36:32;3.90;;;1.40;;
3815;SDS011;1923;48.154;11.536;2022-10-16T16:39:00;3.03;;;1.87;;
3815;SDS011;1923;48.154;11.536;2022-10-16T16:41:30;2.43;;;1.80;;
3815;SDS011;1923;48.154;11.536;2022-10-16T16:44:01;2.40;;;1.53;;
3815;SDS011;1923;48.154;11.536;2022-10-16T16:46:31;2.80;;;1.97;;
3815;SDS011;1923;48.154;11.536;2022-10-16T16:48:59;2.07;;;1.60;;
3815;SDS011;1923;48.154;11.536;2022-10-16T16:51:28;2.50;;;1.40;;
3815;SDS011;1923;48.154;11.536;2022-10-16T16:53:56;2.37;;;1.83;;
3815;SDS011;1923;48.154;11.536;2022-10-16T16:56:25;3.53;;;1.30;;
3815;SDS011;1923;48.154;11.536;2022-10-16T16:58:55;2.00;;;1.03;;
3815;SDS011;1923;48.154;11.536;2022-10-16T17:01:24;2.73;;;1.63;;
3815;SDS011;1923;48.154;11.536;2022-10-16T17:03:54;2.37;;;1.40;;
3815;SDS011;1923;48.154;11.536;2022-10-16T17:06:24;2.27;;;1.30;;
3815;SDS011;1923;48.154;11.536;2022-10-16T17:08:55;3.20;;;1.10;;
3815;SDS011;1923;48.154;11.536;2022-10-16T17:11:24;1.57;;;1.17;;
3815;SDS011;1923;48.154;11.536;2022-10-16T17:13:55;3.50;;;1.37;;
3815;SDS011;1923;48.154;11.536;2022-10-16T17:16:26;2.40;;;1.53;;
3815;SDS011;1923;48.154;11.536;2022-10-16T17:18:57;2.20;;;1.50;;
3815;SDS011;1923;48.154;11.536;2022-10-16T17:21:27;2.30;;;1.63;;
3815;SDS011;1923;48.154;11.536;2022-10-16T17:23:55;2.40;;;1.63;;
3815;SDS011;1923;48.154;11.536;2022-10-16T17:26:23;3.57;;;2.10;;
3815;SDS011;1923;48.154;11.536;2022-10-16T17:28:52;2.33;;;1.80;;
3815;SDS011;1923;48.154;11.536;2022-10-16T17:31:23;4.60;;;2.90;;
3815;SDS011;1923;48.154;11.536;2022-10-16T17:33:54;3.97;;;2.23;;
3815;SDS011;1923;48.154;11.536;2022-10-16T17:36:22;3.13;;;1.90;;
3815;SDS011;1923;48.154;11.536;2022-10-16T17:38:50;2.03;;;1.60;;
3815;SDS011;1923;48.154;11.536;2022-10-16T17:41:19;2.80;;;1.70;;
3815;SDS011;1923;48.154;11.536;2022-10-16T17:43:48;3.60;;;1.90;;
3815;SDS011;1923;48.154;11.536;2022-10-16T17:46:17;2.93;;;1.97;;
3815;SDS011;1923;48.154;11.536;2022-10-16T17:48:49;2.47;;;1.57;;
3815;SDS011;1923;48.154;11.536;2022-10-16T17:51:20;2.53;;;1.73;;
3815;SDS011;1923;48.154;11.536;2022-10-16T17:53:49;2.43;;;1.70;;
3815;SDS011;1923;48.154;11.536;2022-10-16T17:56:19;3.13;;;1.80;;
3815;SDS011;1923;48.154;11.536;2022-10-16T17:58:48;3.30;;;2.20;;
3815;SDS011;1923;48.154;11.536;2022-10-16T18:01:17;3.10;;;1.60;;
3815;SDS011;1923;48.154;11.536;2022-10-16T18:03:49;3.07;;;1.43;;
3815;SDS011;1923;48.154;11.536;2022-10-16T18:06:18;2.50;;;1.70;;
3815;SDS011;1923;48.154;11.536;2022-10-16T18:08:48;2.13;;;1.23;;
3815;SDS011;1923;48.154;11.536;2022-10-16T18:11:16;2.00;;;1.27;;
3815;SDS011;1923;48.154;11.536;2022-10-16T18:13:45;3.30;;;1.33;;
3815;SDS011;1923;48.154;11.536;2022-10-16T18:16:13;3.13;;;2.00;;
3815;SDS011;1923;48.154;11.536;2022-10-16T18:18:42;3.47;;;2.07;;
3815;SDS011;1923;48.154;11.536;2022-10-16T18:21:13;3.30;;;1.83;;
3815;SDS011;1923;48.154;11.536;2022-10-16T18:23:42;3.07;;;1.93;;
3815;SDS011;1923;48.154;11.536;2022-10-16T18:26:17;2.70;;;1.43;;
3815;SDS011;1923;48.154;11.536;2022-10-16T18:28:46;2.73;;;1.47;;
3815;SDS011;1923;48.154;11.536;2022-10-16T18:31:16;3.13;;;2.00;;
3815;SDS011;1923;48.154;11.536;2022-10-16T18:33:45;4.33;;;2.57;;
3815;SDS011;1923;48.154;11.536;2022-10-16T18:36:18;8.23;;;3.40;;
3815;SDS011;1923;48.154;11.536;2022-10-16T18:38:47;9.07;;;4.93;;
3815;SDS011;1923;48.154;11.536;2022-10-16T18:41:16;9.07;;;4.60;;
3815;SDS011;1923;48.154;11.536;2022-10-16T18:43:45;6.60;;;3.60;;
3815;SDS011;1923;48.154;11.536;2022-10-16T18:46:14;5.50;;;3.87;;
3815;SDS011;1923;48.154;11.536;2022-10-16T18:48:43;4.33;;;3.07;;
3815;SDS011;1923;48.154;11.536;2022-10-16T18:51:14;4.93;;;3.23;;
3815;SDS011;1923;48.154;11.536;2022-10-16T18:53:47;3.93;;;2.57;;
3815;SDS011;1923;48.154;11.536;2022-10-16T18:56:17;4.93;;;2.33;;
3815;SDS011;1923;48.154;11.536;2022-10-16T18:58:47;3.63;;;3.13;;
3815;SDS011;1923;48.154;11.536;2022-10-16T19:01:17;3.87;;;3.07;;
3815;SDS011;1923;48.154;11.536;2022-10-16T19:03:47;4.20;;;2.87;;
3815;SDS011;1923;48.154;11.536;2022-10-16T19:06:16;5.37;;;3.10;;
3815;SDS011;1923;48.154;11.536;2022-10-16T19:08:44;5.13;;;2.77;;
3815;SDS011;1923;48.154;11.536;2022-10-16T19:11:13;9.37;;;3.87;;
3815;SDS011;1923;48.154;11.536;2022-10-16T19:13:43;3.77;;;2.83;;
3815;SDS011;1923;48.154;11.536;2022-10-16T19:16:13;9.23;;;3.10;;
3815;SDS011;1923;48.154;11.536;2022-10-16T19:18:46;5.30;;;3.20;;
3815;SDS011;1923;48.154;11.536;2022-10-16T19:21:17;5.20;;;3.17;;
3815;SDS011;1923;48.154;11.536;2022-10-16T19:23:45;4.90;;;3.07;;
3815;SDS011;1923;48.154;11.536;2022-10-16T19:26:17;4.53;;;2.97;;
3815;SDS011;1923;48.154;11.536;2022-10-16T19:28:45;5.30;;;3.00;;
3815;SDS011;1923;48.154;11.536;2022-10-16T19:31:14;3.50;;;2.60;;
3815;SDS011;1923;48.154;11.536;2022-10-16T19:33:43;3.37;;;2.27;;
3815;SDS011;1923;48.154;11.536;2022-10-16T19:36:13;7.20;;;4.30;;
3815;SDS011;1923;48.154;11.536;2022-10-16T19:38:44;5.00;;;2.90;;
3815;SDS011;1923;48.154;11.536;2022-10-16T19:41:13;3.17;;;2.40;;
3815;SDS011;1923;48.154;11.536;2022-10-16T19:43:42;7.00;;;3.50;;
3815;SDS011;1923;48.154;11.536;2022-10-16T19:46:11;5.10;;;3.17;;
3815;SDS011;1923;48.154;11.536;2022-10-16T19:48:40;5.50;;;2.97;;
3815;SDS011;1923;48.154;11.536;2022-10-16T19:51:09;4.37;;;3.20;;
3815;SDS011;1923;48.154;11.536;2022-10-16T19:53:38;4.03;;;2.63;;
3815;SDS011;1923;48.154;11.536;2022-10-16T19:56:11;4.53;;;2.80;;
3815;SDS011;1923;48.154;11.536;2022-10-16T19:58:41;3.60;;;2.53;;
3815;SDS011;1923;48.154;11.536;2022-10-16T20:01:09;4.70;;;2.70;;
3815;SDS011;1923;48.154;11.536;2022-10-16T20:03:38;4.50;;;3.07;;
3815;SDS011;1923;48.154;11.536;2022-10-16T20:06:06;5.03;;;2.47;;
3815;SDS011;1923;48.154;11.536;2022-10-16T20:08:35;4.90;;;2.60;;
3815;SDS011;1923;48.154;11.536;2022-10-16T20:11:04;4.67;;;2.40;;
3815;SDS011;1923;48.154;11.536;2022-10-16T20:13:37;3.83;;;2.83;;
3815;SDS011;1923;48.154;11.536;2022-10-16T20:16:07;6.43;;;2.53;;
3815;SDS011;1923;48.154;11.536;2022-10-16T20:18:37;4.80;;;2.43;;
3815;SDS011;1923;48.154;11.536;2022-10-16T20:21:10;5.33;;;2.63;;
3815;SDS011;1923;48.154;11.536;2022-10-16T20:23:39;5.07;;;2.60;;
3815;SDS011;1923;48.154;11.536;2022-10-16T20:26:07;6.43;;;2.43;;
3815;SDS011;1923;48.154;11.536;2022-10-16T20:28:39;4.10;;;2.70;;
3815;SDS011;1923;48.154;11.536;2022-10-16T20:31:08;4.70;;;3.10;;
3815;SDS011;1923;48.154;11.536;2022-10-16T20:33:37;5.60;;;2.70;;
3815;SDS011;1923;48.154;11.536;2022-10-16T20:36:09;4.30;;;2.80;;
3815;SDS011;1923;48.154;11.536;2022-10-16T20:38:38;5.73;;;2.47;;
3815;SDS011;1923;48.154;11.536;2022-10-16T20:41:06;5.57;;;3.00;;
3815;SDS011;1923;48.154;11.536;2022-10-16T20:43:37;4.70;;;2.10;;
3815;SDS011;1923;48.154;11.536;2022-10-16T20:46:14;4.40;;;2.80;;
3815;SDS011;1923;48.154;11.536;2022-10-16T20:48:44;4.33;;;2.47;;
3815;SDS011;1923;48.154;11.536;2022-10-16T20:51:13;3.83;;;2.50;;
3815;SDS011;1923;48.154;11.536;2022-10-16T20:53:43;3.70;;;2.50;;
3815;SDS011;1923;48.154;11.536;2022-10-16T20:56:12;4.80;;;2.80;;
3815;SDS011;1923;48.154;11.536;2022-10-16T20:58:44;4.13;;;2.73;;
3815;SDS011;1923;48.154;11.536;2022-10-16T21:01:13;2.93;;;2.27;;
3815;SDS011;1923;48.154;11.536;2022-10-16T21:03:42;3.80;;;2.30;;
3815;SDS011;1923;48.154;11.536;2022-10-16T21:06:11;2.17;;;1.93;;
3815;SDS011;1923;48.154;11.536;2022-10-16T21:08:41;5.77;;;3.00;;
3815;SDS011;1923;48.154;11.536;2022-10-16T21:11:10;4.90;;;2.30;;
3815;SDS011;1923;48.154;11.536;2022-10-16T21:13:39;4.23;;;2.40;;
3815;SDS011;1923;48.154;11.536;2022-10-16T21:16:09;5.43;;;2.50;;
3815;SDS011;1923;48.154;11.536;2022-10-16T21:18:38;4.17;;;2.30;;
3815;SDS011;1923;48.154;11.536;2022-10-16T21:21:10;4.20;;;2.33;;
3815;SDS011;1923;48.154;11.536;2022-10-16T21:23:46;3.07;;;2.20;;
3815;SDS011;1923;48.154;11.536;2022-10-16T21:26:14;4.50;;;2.20;;
3815;SDS011;1923;48.154;11.536;2022-10-16T21:28:43;4.20;;;2.80;;
3815;SDS011;1923;48.154;11.536;2022-10-16T21:31:14;4.20;;;2.13;;
3815;SDS011;1923;48.154;11.536;2022-10-16T21:33:45;3.63;;;2.50;;
3815;SDS011;1923;48.154;11.536;2022-10-16T21:36:14;3.63;;;2.43;;
3815;SDS011;1923;48.154;11.536;2022-10-16T21:38:43;3.50;;;2.67;;
3815;SDS011;1923;48.154;11.536;2022-10-16T21:41:18;3.30;;;2.20;;
3815;SDS011;1923;48.154;11.536;2022-10-16T21:43:48;2.80;;;2.40;;
3815;SDS011;1923;48.154;11.536;2022-10-16T21:46:19;4.18;;;2.65;;
3815;SDS011;1923;48.154;11.536;2022-10-16T21:48:48;3.43;;;2.00;;
3815;SDS011;1923;48.154;11.536;2022-10-16T21:51:19;4.03;;;2.37;;
3815;SDS011;1923;48.154;11.536;2022-10-16T21:53:47;6.30;;;3.13;;
3815;SDS011;1923;48.154;11.536;2022-10-16T21:56:15;3.40;;;2.40;;
3815;SDS011;1923;48.154;11.536;2022-10-16T21:58:44;5.60;;;2.90;;
3815;SDS011;1923;48.154;11.536;2022-10-16T22:01:13;4.80;;;2.80;;
3815;SDS011;1923;48.154;11.536;2022-10-16T22:03:44;5.10;;;2.17;;
3815;SDS011;1923;48.154;11.536;2022-10-16T22:06:13;3.50;;;2.40;;
3815;SDS011;1923;48.154;11.536;2022-10-16T22:08:44;3.13;;;2.43;;
3815;SDS011;1923;48.154;11.536;2022-10-16T22:11:14;6.10;;;2.90;;
3815;SDS011;1923;48.154;11.536;2022-10-16T22:13:47;3.50;;;2.67;;
3815;SDS011;1923;48.154;11.536;2022-10-16T22:16:22;4.03;;;3.03;;
3815;SDS011;1923;48.154;11.536;2022-10-16T22:18:53;5.53;;;3.03;;
3815;SDS011;1923;48.154;11.536;2022-10-16T22:21:22;8.03;;;2.80;;
3815;SDS011;1923;48.154;11.536;2022-10-16T22:23:50;3.37;;;2.27;;
3815;SDS011;1923;48.154;11.536;2022-10-16T22:26:18;3.73;;;2.43;;
3815;SDS011;1923;48.154;11.536;2022-10-16T22:28:46;3.73;;;2.30;;
